sensor_id;sensor_type;location;lat;lon;timestamp;pressure;altitude;pressure_sealevel;temperature;humidity
19520;BME280;9904;52.246;20.898;2023-12-14T00:00:52;99094.53;;;1.45;100.00
19520;BME280;9904;52.246;20.898;2023-12-14T00:03:19;99090.91;;;1.46;100.00
19520;BME280;9904;52.246;20.898;2023-12-14T00:05:45;99102.81;;;1.41;100.00
19520;BME280;9904;52.246;20.898;2023-12-14T00:08:12;99097.56;;;1.40;100.00
19520;BME280;9904;52.246;20.898;2023-12-14T00:10:39;99110.28;;;1.36;100.00
19520;BME280;9904;52.246;20.898;2023-12-14T00:13:06;99106.06;;;1.45;100.00
19520;BME280;9904;52.246;20.898;2023-12-14T00:15:34;99114.19;;;1.43;100.00
19520;BME280;9904;52.246;20.898;2023-12-14T00:18:00;99113.56;;;1.40;100.00
19520;BME280;9904;52.246;20.898;2023-12-14T00:20:27;99112.47;;;1.54;100.00
19520;BME280;9904;52.246;20.898;2023-12-14T00:22:54;99118.66;;;1.43;100.00
19520;BME280;9904;52.246;20.898;2023-12-14T00:25:20;99104.84;;;1.49;100.00
19520;BME280;9904;52.246;20.898;2023-12-14T00:27:47;99106.91;;;1.46;100.00
19520;BME280;9904;52.246;20.898;2023-12-14T00:30:14;99122.19;;;1.43;100.00
19520;BME280;9904;52.246;20.898;2023-12-14T00:32:41;99124.72;;;1.56;100.00
19520;BME280;9904;52.246;20.898;2023-12-14T00:35:07;99129.94;;;1.47;100.00
19520;BME280;9904;52.246;20.898;2023-12-14T00:37:35;99135.50;;;1.43;100.00
19520;BME280;9904;52.246;20.898;2023-12-14T00:40:02;99139.75;;;1.57;100.00
19520;BME280;9904;52.246;20.898;2023-12-14T00:42:30;99138.81;;;1.47;100.00
19520;BME280;9904;52.246;20.898;2023-12-14T00:44:57;99137.69;;;1.38;100.00
19520;BME280;9904;52.246;20.898;2023-12-14T00:47:24;99143.91;;;1.39;100.00
19520;BME280;9904;52.246;20.898;2023-12-14T00:49:51;99139.66;;;1.48;100.00
19520;BME280;9904;52.246;20.898;2023-12-14T00:52:17;99144.34;;;1.33;100.00
19520;BME280;9904;52.246;20.898;2023-12-14T00:54:44;99148.63;;;1.35;100.00
19520;BME280;9904;52.246;20.898;2023-12-14T00:57:11;99151.28;;;1.35;100.00
19520;BME280;9904;52.246;20.898;2023-12-14T00:59:37;99155.03;;;1.33;100.00
19520;BME280;9904;52.246;20.898;2023-12-14T01:02:04;99141.59;;;1.34;100.00
19520;BME280;9904;52.246;20.898;2023-12-14T01:04:31;99146.91;;;1.34;100.00
19520;BME280;9904;52.246;20.898;2023-12-14T01:06:58;99151.25;;;1.24;100.00
19520;BME280;9904;52.246;20.898;2023-12-14T01:09:25;99149.47;;;1.36;100.00
19520;BME280;9904;52.246;20.898;2023-12-14T01:11:51;99149.69;;;1.33;100.00
19520;BME280;9904;52.246;20.898;2023-12-14T01:14:18;99144.25;;;1.34;100.00
19520;BME280;9904;52.246;20.898;2023-12-14T01:16:44;99146.91;;;1.23;100.00
19520;BME280;9904;52.246;20.898;2023-12-14T01:19:11;99152.00;;;1.37;100.00
19520;BME280;9904;52.246;20.898;2023-12-14T01:21:38;99154.41;;;1.29;100.00
19520;BME280;9904;52.246;20.898;2023-12-14T01:24:05;99146.66;;;1.26;100.00
19520;BME280;9904;52.246;20.898;2023-12-14T01:26:32;99148.00;;;1.32;100.00
19520;BME280;9904;52.246;20.898;2023-12-14T01:28:58;99152.34;;;1.33;100.00
19520;BME280;9904;52.246;20.898;2023-12-14T01:31:25;99146.31;;;1.42;100.00
19520;BME280;9904;52.246;20.898;2023-12-14T01:33:52;99140.38;;;1.27;100.00
19520;BME280;9904;52.246;20.898;2023-12-14T01:36:23;99144.97;;;1.25;100.00
19520;BME280;9904;52.246;20.898;2023-12-14T01:38:50;99143.41;;;1.22;100.00
19520;BME280;9904;52.246;20.898;2023-12-14T01:41:18;99145.97;;;1.35;100.00
19520;BME280;9904;52.246;20.898;2023-12-14T01:43:44;99146.78;;;1.36;100.00
19520;BME280;9904;52.246;20.898;2023-12-14T01:46:11;99144.97;;;1.36;100.00
19520;BME280;9904;52.246;20.898;2023-12-14T01:48:39;99147.03;;;1.44;100.00
19520;BME280;9904;52.246;20.898;2023-12-14T01:51:06;99150.44;;;1.46;100.00
19520;BME280;9904;52.246;20.898;2023-12-14T01:53:32;99144.13;;;1.36;100.00
19520;BME280;9904;52.246;20.898;2023-12-14T01:55:59;99155.28;;;1.41;100.00
19520;BME280;9904;52.246;20.898;2023-12-14T01:58:26;99150.19;;;1.38;100.00
19520;BME280;9904;52.246;20.898;2023-12-14T02:01:17;99142.56;;;1.33;100.00
19520;BME280;9904;52.246;20.898;2023-12-14T02:03:51;99141.69;;;1.33;100.00
19520;BME280;9904;52.246;20.898;2023-12-14T02:06:19;99147.16;;;1.31;100.00
19520;BME280;9904;52.246;20.898;2023-12-14T02:08:46;99143.66;;;1.31;100.00
19520;BME280;9904;52.246;20.898;2023-12-14T02:11:13;99152.47;;;1.31;100.00
19520;BME280;9904;52.246;20.898;2023-12-14T02:13:40;99146.28;;;1.19;100.00
19520;BME280;9904;52.246;20.898;2023-12-14T02:16:06;99148.00;;;1.32;100.00
19520;BME280;9904;52.246;20.898;2023-12-14T02:18:34;99138.81;;;1.24;100.00
19520;BME280;9904;52.246;20.898;2023-12-14T02:21:01;99141.91;;;1.18;100.00
19520;BME280;9904;52.246;20.898;2023-12-14T02:23:28;99135.75;;;1.29;100.00
19520;BME280;9904;52.246;20.898;2023-12-14T02:25:54;99128.75;;;1.28;100.00
19520;BME280;9904;52.246;20.898;2023-12-14T02:28:21;99129.94;;;1.24;100.00
19520;BME280;9904;52.246;20.898;2023-12-14T02:30:48;99136.25;;;1.34;100.00
19520;BME280;9904;52.246;20.898;2023-12-14T02:33:14;99132.97;;;1.31;100.00
19520;BME280;9904;52.246;20.898;2023-12-14T02:35:42;99132.03;;;1.32;100.00
19520;BME280;9904;52.246;20.898;2023-12-14T02:38:09;99133.22;;;1.27;100.00
19520;BME280;9904;52.246;20.898;2023-12-14T02:40:36;99132.84;;;1.32;100.00
19520;BME280;9904;52.246;20.898;2023-12-14T02:43:02;99135.78;;;1.40;100.00
19520;BME280;9904;52.246;20.898;2023-12-14T02:45:29;99129.09;;;1.35;100.00
19520;BME280;9904;52.246;20.898;2023-12-14T02:47:56;99138.91;;;1.34;100.00
19520;BME280;9904;52.246;20.898;2023-12-14T02:50:23;99137.97;;;1.35;100.00
19520;BME280;9904;52.246;20.898;2023-12-14T02:52:50;99141.09;;;1.18;100.00
19520;BME280;9904;52.246;20.898;2023-12-14T02:55:16;99136.72;;;1.17;100.00
19520;BME280;9904;52.246;20.898;2023-12-14T02:57:43;99141.22;;;1.16;100.00
19520;BME280;9904;52.246;20.898;2023-12-14T03:00:11;99146.91;;;1.23;100.00
19520;BME280;9904;52.246;20.898;2023-12-14T03:02:38;99146.53;;;1.16;100.00
19520;BME280;9904;52.246;20.898;2023-12-14T03:05:05;99156.25;;;1.29;100.00
19520;BME280;9904;52.246;20.898;2023-12-14T03:07:35;99150.69;;;1.32;100.00
19520;BME280;9904;52.246;20.898;2023-12-14T03:10:03;99158.69;;;1.32;100.00
19520;BME280;9904;52.246;20.898;2023-12-14T03:12:29;99155.84;;;1.22;100.00
19520;BME280;9904;52.246;20.898;2023-12-14T03:14:56;99156.25;;;1.29;100.00
19520;BME280;9904;52.246;20.898;2023-12-14T03:17:23;99165.19;;;1.16;100.00
19520;BME280;9904;52.246;20.898;2023-12-14T03:19:49;99159.25;;;1.24;100.00
19520;BME280;9904;52.246;20.898;2023-12-14T03:22:16;99165.31;;;1.15;100.00
19520;BME280;9904;52.246;20.898;2023-12-14T03:24:43;99167.38;;;1.22;100.00
19520;BME280;9904;52.246;20.898;2023-12-14T03:27:09;99166.44;;;1.23;100.00
19520;BME280;9904;52.246;20.898;2023-12-14T03:29:36;99172.19;;;1.17;100.00
19520;BME280;9904;52.246;20.898;2023-12-14T03:32:03;99187.34;;;1.05;100.00
19520;BME280;9904;52.246;20.898;2023-12-14T03:34:30;99192.69;;;1.17;100.00
19520;BME280;9904;52.246;20.898;2023-12-14T03:36:56;99186.53;;;1.16;100.00
19520;BME280;9904;52.246;20.898;2023-12-14T03:39:23;99180.72;;;1.22;100.00
19520;BME280;9904;52.246;20.898;2023-12-14T03:41:49;99178.75;;;1.13;100.00
19520;BME280;9904;52.246;20.898;2023-12-14T03:44:16;99189.06;;;1.18;100.00
19520;BME280;9904;52.246;20.898;2023-12-14T03:46:43;99185.09;;;1.23;100.00
19520;BME280;9904;52.246;20.898;2023-12-14T03:49:09;99185.69;;;1.27;100.00
19520;BME280;9904;52.246;20.898;2023-12-14T03:51:36;99183.25;;;1.24;100.00
19520;BME280;9904;52.246;20.898;2023-12-14T03:54:03;99194.41;;;1.29;100.00
19520;BME280;9904;52.246;20.898;2023-12-14T03:56:29;99192.94;;;1.25;100.00
19520;BME280;9904;52.246;20.898;2023-12-14T03:58:56;99201.44;;;1.19;100.00
19520;BME280;9904;52.246;20.898;2023-12-14T04:01:24;99200.81;;;1.15;100.00
19520;BME280;9904;52.246;20.898;2023-12-14T04:03:51;99194.75;;;1.13;100.00
19520;BME280;9904;52.246;20.898;2023-12-14T04:06:17;99195.84;;;1.10;100.00
19520;BME280;9904;52.246;20.898;2023-12-14T04:08:44;99202.75;;;1.13;100.00
19520;BME280;9904;52.246;20.898;2023-12-14T04:11:11;99203.69;;;1.01;100.00
19520;BME280;9904;52.246;20.898;2023-12-14T04:13:38;99198.59;;;0.98;100.00
19520;BME280;9904;52.246;20.898;2023-12-14T04:16:05;99215.53;;;0.97;100.00
19520;BME280;9904;52.246;20.898;2023-12-14T04:18:32;99216.53;;;1.07;100.00
19520;BME280;9904;52.246;20.898;2023-12-14T04:20:59;99218.34;;;1.06;100.00
19520;BME280;9904;52.246;20.898;2023-12-14T04:23:26;99217.53;;;1.17;100.00
19520;BME280;9904;52.246;20.898;2023-12-14T04:25:53;99220.94;;;1.19;100.00
19520;BME280;9904;52.246;20.898;2023-12-14T04:28:20;99216.91;;;1.14;100.00
19520;BME280;9904;52.246;20.898;2023-12-14T04:30:46;99225.38;;;1.07;100.00
19520;BME280;9904;52.246;20.898;2023-12-14T04:33:13;99217.16;;;1.10;100.00
19520;BME280;9904;52.246;20.898;2023-12-14T04:35:40;99221.88;;;1.07;100.00
19520;BME280;9904;52.246;20.898;2023-12-14T04:38:07;99221.19;;;1.16;100.00
19520;BME280;9904;52.246;20.898;2023-12-14T04:40:34;99219.69;;;1.12;100.00
19520;BME280;9904;52.246;20.898;2023-12-14T04:43:00;99225.91;;;1.13;100.00
19520;BME280;9904;52.246;20.898;2023-12-14T04:45:27;99224.50;;;0.95;100.00
19520;BME280;9904;52.246;20.898;2023-12-14T04:47:54;99236.84;;;0.97;100.00
19520;BME280;9904;52.246;20.898;2023-12-14T04:50:21;99239.50;;;0.97;100.00
19520;BME280;9904;52.246;20.898;2023-12-14T04:52:48;99234.94;;;1.10;100.00
19520;BME280;9904;52.246;20.898;2023-12-14T04:55:14;99238.59;;;1.09;100.00
19520;BME280;9904;52.246;20.898;2023-12-14T04:57:41;99247.03;;;1.03;100.00
19520;BME280;9904;52.246;20.898;2023-12-14T05:00:08;99249.69;;;0.91;100.00
19520;BME280;9904;52.246;20.898;2023-12-14T05:02:35;99241.28;;;1.09;100.00
19520;BME280;9904;52.246;20.898;2023-12-14T05:05:02;99256.53;;;1.07;100.00
19520;BME280;9904;52.246;20.898;2023-12-14T05:07:29;99260.03;;;1.07;100.00
19520;BME280;9904;52.246;20.898;2023-12-14T05:09:56;99260.50;;;1.01;100.00
19520;BME280;9904;52.246;20.898;2023-12-14T05:12:23;99267.78;;;1.10;100.00
19520;BME280;9904;52.246;20.898;2023-12-14T05:14:52;99274.44;;;1.05;100.00
19520;BME280;9904;52.246;20.898;2023-12-14T05:17:19;99271.91;;;1.03;100.00
19520;BME280;9904;52.246;20.898;2023-12-14T05:19:46;99281.75;;;1.14;100.00
19520;BME280;9904;52.246;20.898;2023-12-14T05:22:13;99281.13;;;1.10;100.00
19520;BME280;9904;52.246;20.898;2023-12-14T05:24:39;99285.97;;;1.05;100.00
19520;BME280;9904;52.246;20.898;2023-12-14T05:27:06;99295.81;;;0.92;100.00
19520;BME280;9904;52.246;20.898;2023-12-14T05:29:32;99305.38;;;0.94;100.00
19520;BME280;9904;52.246;20.898;2023-12-14T05:31:59;99296.84;;;1.02;100.00
19520;BME280;9904;52.246;20.898;2023-12-14T05:34:26;99310.78;;;1.06;100.00
19520;BME280;9904;52.246;20.898;2023-12-14T05:36:53;99305.91;;;1.00;100.00
19520;BME280;9904;52.246;20.898;2023-12-14T05:39:20;99308.72;;;0.98;100.00
19520;BME280;9904;52.246;20.898;2023-12-14T05:41:47;99319.13;;;1.01;100.00
19520;BME280;9904;52.246;20.898;2023-12-14T05:44:13;99325.81;;;1.07;100.00
19520;BME280;9904;52.246;20.898;2023-12-14T05:46:40;99324.94;;;1.06;100.00
19520;BME280;9904;52.246;20.898;2023-12-14T05:49:07;99323.44;;;1.15;100.00
19520;BME280;9904;52.246;20.898;2023-12-14T05:51:34;99335.50;;;1.08;100.00
19520;BME280;9904;52.246;20.898;2023-12-14T05:54:01;99336.00;;;1.13;100.00
19520;BME280;9904;52.246;20.898;2023-12-14T05:56:28;99336.84;;;1.14;100.00
19520;BME280;9904;52.246;20.898;2023-12-14T05:58:55;99341.69;;;1.08;100.00
19520;BME280;9904;52.246;20.898;2023-12-14T06:01:23;99340.22;;;1.04;100.00
19520;BME280;9904;52.246;20.898;2023-12-14T06:03:50;99348.41;;;1.25;100.00
19520;BME280;9904;52.246;20.898;2023-12-14T06:06:17;99349.66;;;1.33;100.00
19520;BME280;9904;52.246;20.898;2023-12-14T06:08:44;99352.16;;;1.23;100.00
19520;BME280;9904;52.246;20.898;2023-12-14T06:11:11;99350.94;;;1.16;100.00
19520;BME280;9904;52.246;20.898;2023-12-14T06:13:37;99361.09;;;1.10;100.00
19520;BME280;9904;52.246;20.898;2023-12-14T06:16:04;99364.09;;;1.06;100.00
19520;BME280;9904;52.246;20.898;2023-12-14T06:18:34;99367.59;;;1.06;100.00
19520;BME280;9904;52.246;20.898;2023-12-14T06:21:01;99370.03;;;1.09;100.00
19520;BME280;9904;52.246;20.898;2023-12-14T06:23:27;99371.16;;;0.94;100.00
19520;BME280;9904;52.246;20.898;2023-12-14T06:25:54;99370.31;;;1.18;100.00
19520;BME280;9904;52.246;20.898;2023-12-14T06:28:21;99373.28;;;1.02;100.00
19520;BME280;9904;52.246;20.898;2023-12-14T06:30:48;99372.88;;;0.95;100.00
19520;BME280;9904;52.246;20.898;2023-12-14T06:33:14;99381.31;;;0.89;100.00
19520;BME280;9904;52.246;20.898;2023-12-14T06:35:41;99381.16;;;1.03;100.00
19520;BME280;9904;52.246;20.898;2023-12-14T06:38:09;99380.69;;;1.09;100.00
19520;BME280;9904;52.246;20.898;2023-12-14T06:40:36;99385.75;;;1.01;100.00
19520;BME280;9904;52.246;20.898;2023-12-14T06:43:06;99384.00;;;1.13;100.00
19520;BME280;9904;52.246;20.898;2023-12-14T06:45:36;99392.16;;;0.99;100.00
19520;BME280;9904;52.246;20.898;2023-12-14T06:48:03;99391.81;;;1.03;100.00
19520;BME280;9904;52.246;20.898;2023-12-14T06:50:30;99393.53;;;1.04;100.00
19520;BME280;9904;52.246;20.898;2023-12-14T06:52:57;99385.28;;;1.07;100.00
19520;BME280;9904;52.246;20.898;2023-12-14T06:55:24;99399.19;;;1.00;100.00
19520;BME280;9904;52.246;20.898;2023-12-14T06:57:51;99405.69;;;0.95;100.00
19520;BME280;9904;52.246;20.898;2023-12-14T07:00:18;99404.53;;;1.00;100.00
19520;BME280;9904;52.246;20.898;2023-12-14T07:02:44;99412.28;;;1.03;100.00
19520;BME280;9904;52.246;20.898;2023-12-14T07:05:11;99407.19;;;1.00;100.00
19520;BME280;9904;52.246;20.898;2023-12-14T07:07:38;99418.13;;;1.08;100.00
19520;BME280;9904;52.246;20.898;2023-12-14T07:10:05;99415.66;;;1.18;100.00
19520;BME280;9904;52.246;20.898;2023-12-14T07:12:32;99423.47;;;1.08;100.00
19520;BME280;9904;52.246;20.898;2023-12-14T07:14:59;99415.06;;;1.01;100.00
19520;BME280;9904;52.246;20.898;2023-12-14T07:17:26;99419.94;;;1.07;100.00
19520;BME280;9904;52.246;20.898;2023-12-14T07:19:53;99415.38;;;0.97;100.00
19520;BME280;9904;52.246;20.898;2023-12-14T07:22:22;99424.31;;;1.08;100.00
19520;BME280;9904;52.246;20.898;2023-12-14T07:24:49;99423.91;;;1.02;100.00
19520;BME280;9904;52.246;20.898;2023-12-14T07:27:24;99424.13;;;0.99;100.00
19520;BME280;9904;52.246;20.898;2023-12-14T07:29:51;99418.63;;;0.89;100.00
19520;BME280;9904;52.246;20.898;2023-12-14T07:32:18;99438.22;;;0.88;100.00
19520;BME280;9904;52.246;20.898;2023-12-14T07:34:45;99431.06;;;1.01;100.00
19520;BME280;9904;52.246;20.898;2023-12-14T07:37:12;99433.28;;;0.94;100.00
19520;BME280;9904;52.246;20.898;2023-12-14T07:39:39;99434.78;;;0.99;100.00
19520;BME280;9904;52.246;20.898;2023-12-14T07:42:06;99433.72;;;1.01;100.00
19520;BME280;9904;52.246;20.898;2023-12-14T07:44:33;99429.91;;;0.92;100.00
19520;BME280;9904;52.246;20.898;2023-12-14T07:47:00;99431.81;;;0.90;100.00
19520;BME280;9904;52.246;20.898;2023-12-14T07:49:27;99428.63;;;0.98;100.00
19520;BME280;9904;52.246;20.898;2023-12-14T07:51:54;99430.25;;;1.12;100.00
19520;BME280;9904;52.246;20.898;2023-12-14T07:54:22;99442.56;;;1.02;100.00
19520;BME280;9904;52.246;20.898;2023-12-14T07:56:49;99437.97;;;1.04;100.00
19520;BME280;9904;52.246;20.898;2023-12-14T07:59:15;99449.69;;;1.01;100.00
19520;BME280;9904;52.246;20.898;2023-12-14T08:01:42;99462.06;;;1.02;100.00
19520;BME280;9904;52.246;20.898;2023-12-14T08:04:09;99463.91;;;1.02;100.00
19520;BME280;9904;52.246;20.898;2023-12-14T08:06:38;99473.47;;;1.04;100.00
19520;BME280;9904;52.246;20.898;2023-12-14T08:09:09;99475.59;;;0.99;100.00
19520;BME280;9904;52.246;20.898;2023-12-14T08:11:35;99483.59;;;0.99;100.00
19520;BME280;9904;52.246;20.898;2023-12-14T08:14:02;99482.09;;;1.08;100.00
19520;BME280;9904;52.246;20.898;2023-12-14T08:16:29;99483.72;;;0.98;100.00
19520;BME280;9904;52.246;20.898;2023-12-14T08:18:56;99487.00;;;1.14;100.00
19520;BME280;9904;52.246;20.898;2023-12-14T08:21:23;99488.69;;;1.15;100.00
19520;BME280;9904;52.246;20.898;2023-12-14T08:23:50;99496.69;;;1.15;100.00
19520;BME280;9904;52.246;20.898;2023-12-14T08:26:17;99497.78;;;1.13;100.00
19520;BME280;9904;52.246;20.898;2023-12-14T08:28:43;99506.06;;;1.21;100.00
19520;BME280;9904;52.246;20.898;2023-12-14T08:31:10;99510.34;;;1.23;100.00
19520;BME280;9904;52.246;20.898;2023-12-14T08:33:41;99512.75;;;1.26;100.00
19520;BME280;9904;52.246;20.898;2023-12-14T08:36:09;99512.31;;;1.33;100.00
19520;BME280;9904;52.246;20.898;2023-12-14T08:38:35;99519.66;;;1.42;100.00
19520;BME280;9904;52.246;20.898;2023-12-14T08:41:02;99514.78;;;1.23;100.00
19520;BME280;9904;52.246;20.898;2023-12-14T08:43:29;99520.53;;;1.30;100.00
19520;BME280;9904;52.246;20.898;2023-12-14T08:45:55;99524.72;;;1.21;100.00
19520;BME280;9904;52.246;20.898;2023-12-14T08:48:22;99533.69;;;1.20;100.00
19520;BME280;9904;52.246;20.898;2023-12-14T08:50:49;99534.19;;;1.38;100.00
19520;BME280;9904;52.246;20.898;2023-12-14T08:53:15;99542.31;;;1.23;100.00
19520;BME280;9904;52.246;20.898;2023-12-14T08:55:42;99542.53;;;1.20;100.00
19520;BME280;9904;52.246;20.898;2023-12-14T08:58:09;99535.97;;;1.37;100.00
19520;BME280;9904;52.246;20.898;2023-12-14T09:00:36;99548.03;;;1.30;100.00
19520;BME280;9904;52.246;20.898;2023-12-14T09:03:02;99549.00;;;1.29;100.00
19520;BME280;9904;52.246;20.898;2023-12-14T09:05:29;99544.94;;;1.36;100.00
19520;BME280;9904;52.246;20.898;2023-12-14T09:07:56;99551.88;;;1.39;100.00
19520;BME280;9904;52.246;20.898;2023-12-14T09:10:25;99553.94;;;1.22;100.00
19520;BME280;9904;52.246;20.898;2023-12-14T09:12:52;99556.63;;;1.09;100.00
19520;BME280;9904;52.246;20.898;2023-12-14T09:15:19;99562.78;;;1.10;100.00
19520;BME280;9904;52.246;20.898;2023-12-14T09:17:45;99559.28;;;1.22;100.00
19520;BME280;9904;52.246;20.898;2023-12-14T09:20:13;99572.81;;;1.19;100.00
19520;BME280;9904;52.246;20.898;2023-12-14T09:22:40;99569.75;;;1.13;100.00
19520;BME280;9904;52.246;20.898;2023-12-14T09:25:07;99563.78;;;1.09;100.00
19520;BME280;9904;52.246;20.898;2023-12-14T09:27:36;99568.13;;;1.10;100.00
19520;BME280;9904;52.246;20.898;2023-12-14T09:30:03;99571.66;;;1.10;100.00
19520;BME280;9904;52.246;20.898;2023-12-14T09:32:31;99573.44;;;1.10;100.00
19520;BME280;9904;52.246;20.898;2023-12-14T09:34:58;99578.78;;;1.10;100.00
19520;BME280;9904;52.246;20.898;2023-12-14T09:37:25;99584.66;;;1.15;100.00
19520;BME280;9904;52.246;20.898;2023-12-14T09:39:52;99584.75;;;1.14;100.00
19520;BME280;9904;52.246;20.898;2023-12-14T09:42:20;99579.84;;;1.20;100.00
19520;BME280;9904;52.246;20.898;2023-12-14T09:44:48;99586.16;;;1.06;100.00
19520;BME280;9904;52.246;20.898;2023-12-14T09:47:15;99580.81;;;1.06;100.00
19520;BME280;9904;52.246;20.898;2023-12-14T09:49:42;99584.03;;;1.12;100.00
19520;BME280;9904;52.246;20.898;2023-12-14T09:52:12;99579.84;;;1.20;100.00
19520;BME280;9904;52.246;20.898;2023-12-14T09:54:39;99587.41;;;1.26;100.00
19520;BME280;9904;52.246;20.898;2023-12-14T09:57:06;99582.72;;;1.30;100.00
19520;BME280;9904;52.246;20.898;2023-12-14T09:59:33;99586.56;;;1.39;100.00
19520;BME280;9904;52.246;20.898;2023-12-14T10:02:10;99587.91;;;1.45;100.00
19520;BME280;9904;52.246;20.898;2023-12-14T10:04:38;99577.16;;;1.46;100.00
19520;BME280;9904;52.246;20.898;2023-12-14T10:07:05;99586.41;;;1.53;100.00
19520;BME280;9904;52.246;20.898;2023-12-14T10:09:37;99584.53;;;1.42;100.00
19520;BME280;9904;52.246;20.898;2023-12-14T10:12:07;99583.25;;;1.35;100.00
19520;BME280;9904;52.246;20.898;2023-12-14T10:14:36;99583.13;;;1.50;100.00
19520;BME280;9904;52.246;20.898;2023-12-14T10:17:22;99581.09;;;1.53;100.00
19520;BME280;9904;52.246;20.898;2023-12-14T10:19:55;99584.53;;;1.42;100.00
19520;BME280;9904;52.246;20.898;2023-12-14T10:22:21;99583.44;;;1.45;100.00
19520;BME280;9904;52.246;20.898;2023-12-14T10:24:48;99586.94;;;1.58;100.00
19520;BME280;9904;52.246;20.898;2023-12-14T10:27:16;99587.75;;;1.59;100.00
19520;BME280;9904;52.246;20.898;2023-12-14T10:29:44;99587.34;;;1.65;100.00
19520;BME280;9904;52.246;20.898;2023-12-14T10:32:11;99600.44;;;1.68;100.00
19520;BME280;9904;52.246;20.898;2023-12-14T10:34:38;99594.19;;;1.56;100.00
19520;BME280;9904;52.246;20.898;2023-12-14T10:37:09;99603.88;;;1.70;100.00
19520;BME280;9904;52.246;20.898;2023-12-14T10:39:37;99603.97;;;1.69;100.00
19520;BME280;9904;52.246;20.898;2023-12-14T10:42:05;99610.59;;;1.63;100.00
19520;BME280;9904;52.246;20.898;2023-12-14T10:44:45;99610.28;;;1.68;100.00
19520;BME280;9904;52.246;20.898;2023-12-14T10:47:34;99605.44;;;1.73;100.00
19520;BME280;9904;52.246;20.898;2023-12-14T10:50:01;99605.00;;;1.79;100.00
19520;BME280;9904;52.246;20.898;2023-12-14T10:52:29;99613.97;;;1.78;100.00
19520;BME280;9904;52.246;20.898;2023-12-14T10:55:00;99616.09;;;1.49;100.00
19520;BME280;9904;52.246;20.898;2023-12-14T10:57:28;99623.81;;;1.65;100.00
19520;BME280;9904;52.246;20.898;2023-12-14T10:59:59;99627.38;;;1.65;100.00
19520;BME280;9904;52.246;20.898;2023-12-14T11:02:27;99631.22;;;1.85;100.00
19520;BME280;9904;52.246;20.898;2023-12-14T11:04:59;99637.88;;;1.80;100.00
19520;BME280;9904;52.246;20.898;2023-12-14T11:07:50;99638.34;;;1.73;100.00
19520;BME280;9904;52.246;20.898;2023-12-14T11:10:21;99634.34;;;1.79;100.00
19520;BME280;9904;52.246;20.898;2023-12-14T11:13:04;99639.25;;;1.85;100.00
19520;BME280;9904;52.246;20.898;2023-12-14T11:15:35;99643.22;;;1.80;100.00
19520;BME280;9904;52.246;20.898;2023-12-14T11:23:13;99652.69;;;1.84;100.00
19520;BME280;9904;52.246;20.898;2023-12-14T11:25:41;99649.28;;;1.82;100.00
19520;BME280;9904;52.246;20.898;2023-12-14T11:28:13;99647.03;;;1.88;100.00
19520;BME280;9904;52.246;20.898;2023-12-14T11:30:42;99655.41;;;1.71;100.00
19520;BME280;9904;52.246;20.898;2023-12-14T11:33:21;99651.47;;;1.64;100.00
19520;BME280;9904;52.246;20.898;2023-12-14T11:35:50;99651.13;;;1.68;100.00
19520;BME280;9904;52.246;20.898;2023-12-14T11:38:18;99659.59;;;1.62;100.00
19520;BME280;9904;52.246;20.898;2023-12-14T11:40:47;99662.13;;;1.77;100.00
19520;BME280;9904;52.246;20.898;2023-12-14T11:43:16;99661.13;;;1.90;100.00
19520;BME280;9904;52.246;20.898;2023-12-14T11:45:43;99669.34;;;1.87;100.00
19520;BME280;9904;52.246;20.898;2023-12-14T11:48:11;99668.09;;;1.80;100.00
19520;BME280;9904;52.246;20.898;2023-12-14T11:50:42;99671.41;;;1.71;100.00
19520;BME280;9904;52.246;20.898;2023-12-14T11:53:10;99679.41;;;1.71;100.00
19520;BME280;9904;52.246;20.898;2023-12-14T11:55:40;99675.47;;;1.64;100.00
19520;BME280;9904;52.246;20.898;2023-12-14T11:58:07;99673.75;;;1.76;100.00
19520;BME280;9904;52.246;20.898;2023-12-14T12:00:35;99682.47;;;1.90;100.00
19520;BME280;9904;52.246;20.898;2023-12-14T12:05:46;99686.31;;;1.86;100.00
19520;BME280;9904;52.246;20.898;2023-12-14T12:08:15;99679.00;;;1.64;100.00
19520;BME280;9904;52.246;20.898;2023-12-14T12:10:42;99680.09;;;1.62;100.00
19520;BME280;9904;52.246;20.898;2023-12-14T12:13:17;99670.63;;;1.82;100.00
19520;BME280;9904;52.246;20.898;2023-12-14T12:15:46;99678.19;;;1.51;100.00
19520;BME280;9904;52.246;20.898;2023-12-14T12:18:15;99687.03;;;1.51;100.00
19520;BME280;9904;52.246;20.898;2023-12-14T12:20:44;99684.03;;;1.56;100.00
19520;BME280;9904;52.246;20.898;2023-12-14T12:23:10;99694.47;;;1.72;100.00
19520;BME280;9904;52.246;20.898;2023-12-14T12:25:37;99698.31;;;1.68;100.00
19520;BME280;9904;52.246;20.898;2023-12-14T12:28:04;99695.72;;;1.79;100.00
19520;BME280;9904;52.246;20.898;2023-12-14T12:30:31;99709.94;;;1.80;100.00
19520;BME280;9904;52.246;20.898;2023-12-14T12:32:58;99713.13;;;1.85;100.00
19520;BME280;9904;52.246;20.898;2023-12-14T12:35:25;99706.59;;;1.89;100.00
19520;BME280;9904;52.246;20.898;2023-12-14T12:37:52;99711.84;;;1.90;100.00
19520;BME280;9904;52.246;20.898;2023-12-14T12:40:23;99712.78;;;2.02;100.00
19520;BME280;9904;52.246;20.898;2023-12-14T12:42:52;99717.94;;;1.93;100.00
19520;BME280;9904;52.246;20.898;2023-12-14T12:45:19;99719.09;;;1.88;100.00
19520;BME280;9904;52.246;20.898;2023-12-14T12:47:49;99715.28;;;1.67;100.00
19520;BME280;9904;52.246;20.898;2023-12-14T12:50:16;99710.91;;;1.66;100.00
19520;BME280;9904;52.246;20.898;2023-12-14T12:52:44;99721.78;;;1.63;100.00
19520;BME280;9904;52.246;20.898;2023-12-14T12:55:12;99721.25;;;1.57;100.00
19520;BME280;9904;52.246;20.898;2023-12-14T12:57:39;99734.41;;;1.61;100.00
19520;BME280;9904;52.246;20.898;2023-12-14T13:00:09;99725.97;;;1.54;100.00
19520;BME280;9904;52.246;20.898;2023-12-14T13:02:40;99732.06;;;1.69;100.00
19520;BME280;9904;52.246;20.898;2023-12-14T13:05:09;99733.00;;;1.68;100.00
19520;BME280;9904;52.246;20.898;2023-12-14T13:07:44;99735.47;;;1.58;100.00
19520;BME280;9904;52.246;20.898;2023-12-14T13:10:14;99731.59;;;1.49;100.00